Time;durP1;ratioP1;P1;durP2;ratioP2;P2;SDS_P1;SDS_P2;PMS_P1;PMS_P2;Temp;Humidity;BMP_temperature;BMP_pressure;BME280_temperature;BME280_humidity;BME280_pressure;Samples;Min_cycle;Max_cycle;Signal;HPM_P1;HPM_P2
2023/02/17 00:01:24;;;;;;;1.10;1.00;;;;;;;;;;4147960;28;20569;-41
2023/02/17 00:03:26;;;;;;;1.35;0.90;;;;;;;;;;4130787;28;20089;-41
2023/02/17 00:05:27;;;;;;;1.45;0.88;;;;;;;;;;4147599;28;20485;-41
2023/02/17 00:07:32;;;;;;;1.52;1.05;;;;;;;;;;4147560;28;20049;-41
2023/02/17 00:09:33;;;;;;;1.92;1.23;;;;;;;;;;4147852;28;20448;-42
2023/02/17 00:11:35;;;;;;;1.02;0.93;;;;;;;;;;4130235;28;20062;-41
2023/02/17 00:13:37;;;;;;;0.93;0.90;;;;;;;;;;4147522;28;20054;-41
2023/02/17 00:15:38;;;;;;;1.10;0.95;;;;;;;;;;4147596;28;20112;-41
2023/02/17 00:17:39;;;;;;;2.85;1.20;;;;;;;;;;4147746;28;20058;-41
2023/02/17 00:19:41;;;;;;;1.40;1.13;;;;;;;;;;4147791;28;20501;-41
2023/02/17 00:21:42;;;;;;;1.55;1.15;;;;;;;;;;4147077;28;20383;-41
2023/02/17 00:23:45;;;;;;;1.10;1.00;;;;;;;;;;4147385;28;20096;-41
2023/02/17 00:25:46;;;;;;;1.42;1.20;;;;;;;;;;4147761;28;20116;-41
2023/02/17 00:27:48;;;;;;;1.98;1.33;;;;;;;;;;4147457;28;20069;-41
2023/02/17 00:29:49;;;;;;;1.00;0.90;;;;;;;;;;4146765;28;20100;-41
2023/02/17 00:31:52;;;;;;;1.17;0.90;;;;;;;;;;4147357;28;20062;-42
2023/02/17 00:33:55;;;;;;;1.65;1.20;;;;;;;;;;4147473;28;20180;-41
2023/02/17 00:35:56;;;;;;;1.23;1.05;;;;;;;;;;4147744;28;20058;-41
2023/02/17 00:37:57;;;;;;;1.50;1.00;;;;;;;;;;4147161;28;20054;-41
2023/02/17 00:39:58;;;;;;;2.10;1.23;;;;;;;;;;4147138;28;20107;-41
2023/02/17 00:41:59;;;;;;;1.33;0.90;;;;;;;;;;4147357;28;20464;-41
2023/02/17 00:44:03;;;;;;;1.05;0.88;;;;;;;;;;4130125;28;20065;-40
2023/02/17 00:46:05;;;;;;;1.17;0.98;;;;;;;;;;4129970;28;20058;-41
2023/02/17 00:48:07;;;;;;;1.23;1.02;;;;;;;;;;4147053;28;20077;-41
2023/02/17 00:50:08;;;;;;;1.08;0.93;;;;;;;;;;4147145;28;20057;-41
2023/02/17 00:52:10;;;;;;;1.42;0.70;;;;;;;;;;4146663;28;20053;-41
2023/02/17 00:54:12;;;;;;;1.50;1.23;;;;;;;;;;4147467;28;20058;-41
2023/02/17 00:56:13;;;;;;;1.55;1.27;;;;;;;;;;4146995;28;20422;-41
2023/02/17 00:58:15;;;;;;;1.88;0.95;;;;;;;;;;4134056;28;20049;-41
2023/02/17 01:00:17;;;;;;;1.45;1.05;;;;;;;;;;4146871;28;20077;-41
2023/02/17 01:02:18;;;;;;;1.13;0.90;;;;;;;;;;4147000;28;20054;-41
2023/02/17 01:04:19;;;;;;;1.00;0.75;;;;;;;;;;4129905;28;20109;-41
2023/02/17 01:06:27;;;;;;;1.88;1.20;;;;;;;;;;4146523;28;20061;-41
2023/02/17 01:08:28;;;;;;;1.75;1.15;;;;;;;;;;4147010;28;20081;-41
2023/02/17 01:10:31;;;;;;;0.80;0.80;;;;;;;;;;4129776;28;20414;-41
2023/02/17 01:12:33;;;;;;;1.17;0.88;;;;;;;;;;4146747;28;20112;-41
2023/02/17 01:14:34;;;;;;;1.45;0.90;;;;;;;;;;4146526;28;20069;-41
2023/02/17 01:16:37;;;;;;;1.50;1.23;;;;;;;;;;4146763;28;20100;-41
2023/02/17 01:18:39;;;;;;;1.10;1.00;;;;;;;;;;4113229;28;20545;-41
2023/02/17 01:20:41;;;;;;;1.10;1.00;;;;;;;;;;4147020;28;20060;-41
2023/02/17 01:22:42;;;;;;;1.95;1.08;;;;;;;;;;4112788;28;20498;-41
2023/02/17 01:24:43;;;;;;;1.30;1.20;;;;;;;;;;4147047;28;20084;-41
2023/02/17 01:26:45;;;;;;;1.17;0.88;;;;;;;;;;4146703;28;20449;-41
2023/02/17 01:28:47;;;;;;;2.00;1.00;;;;;;;;;;4146893;28;20049;-41
2023/02/17 01:30:48;;;;;;;1.00;0.90;;;;;;;;;;4146744;28;20100;-41
2023/02/17 01:32:50;;;;;;;1.00;0.90;;;;;;;;;;4146640;28;20053;-41
2023/02/17 01:34:51;;;;;;;1.10;0.80;;;;;;;;;;4129587;28;20552;-41
2023/02/17 01:36:53;;;;;;;1.02;0.90;;;;;;;;;;4128988;28;20054;-41
2023/02/17 01:38:54;;;;;;;1.58;1.00;;;;;;;;;;4146706;28;20050;-41
2023/02/17 01:40:56;;;;;;;1.33;1.10;;;;;;;;;;4129719;28;20061;-41
2023/02/17 01:42:57;;;;;;;1.23;1.10;;;;;;;;;;4150169;28;20058;-40
2023/02/17 01:45:16;;;;;;;1.85;1.20;;;;;;;;;;4150384;28;20104;-41
2023/02/17 01:47:18;;;;;;;1.50;1.20;;;;;;;;;;4150033;28;20180;-41
2023/02/17 01:49:22;;;;;;;1.77;1.23;;;;;;;;;;4149922;28;20046;-41
2023/02/17 01:51:27;;;;;;;1.10;0.98;;;;;;;;;;4132015;28;20148;-41
2023/02/17 01:53:38;;;;;;;1.30;1.08;;;;;;;;;;4136704;28;20489;-42
2023/02/17 01:55:40;;;;;;;1.15;0.88;;;;;;;;;;4150094;28;20104;-41
2023/02/17 01:57:43;;;;;;;1.20;1.05;;;;;;;;;;4141849;28;20137;-41
2023/02/17 01:59:44;;;;;;;0.82;0.70;;;;;;;;;;4150255;28;20050;-41
2023/02/17 02:01:47;;;;;;;1.20;0.95;;;;;;;;;;4149786;28;20054;-41
2023/02/17 02:03:50;;;;;;;1.20;1.02;;;;;;;;;;4149541;28;20390;-42
2023/02/17 02:05:51;;;;;;;1.27;1.00;;;;;;;;;;4132250;28;20065;-41
2023/02/17 02:07:53;;;;;;;1.65;1.17;;;;;;;;;;4131751;28;20089;-40
2023/02/17 02:09:56;;;;;;;1.33;0.98;;;;;;;;;;4149871;28;20347;-40
2023/02/17 02:11:58;;;;;;;1.10;1.00;;;;;;;;;;4149437;28;20049;-40
2023/02/17 02:14:06;;;;;;;1.50;1.00;;;;;;;;;;4149582;28;20054;-40
2023/02/17 02:16:33;;;;;;;1.00;0.90;;;;;;;;;;4149495;28;20049;-41
2023/02/17 02:19:01;;;;;;;1.63;1.23;;;;;;;;;;4149507;28;20050;-41
2023/02/17 02:21:24;;;;;;;1.10;1.00;;;;;;;;;;4135874;28;20444;-40
2023/02/17 02:23:50;;;;;;;1.70;1.30;;;;;;;;;;4149138;28;20457;-41
2023/02/17 02:26:32;;;;;;;1.40;0.95;;;;;;;;;;4149918;28;20123;-40
2023/02/17 02:29:04;;;;;;;1.65;1.10;;;;;;;;;;4118973;28;20054;-40
2023/02/17 02:31:34;;;;;;;1.13;0.90;;;;;;;;;;4132321;28;20053;-40
2023/02/17 02:33:58;;;;;;;1.40;1.00;;;;;;;;;;4149248;28;20100;-41
2023/02/17 02:36:12;;;;;;;1.45;1.10;;;;;;;;;;4115671;28;20059;-40
2023/02/17 02:38:19;;;;;;;1.42;1.20;;;;;;;;;;4115571;28;20125;-40
2023/02/17 02:40:24;;;;;;;1.50;1.10;;;;;;;;;;4132214;28;20081;-42
2023/02/17 02:42:26;;;;;;;1.65;1.30;;;;;;;;;;4115588;28;20431;-41
2023/02/17 02:44:27;;;;;;;1.85;1.30;;;;;;;;;;4131666;28;20058;-42
2023/02/17 02:46:28;;;;;;;1.67;1.25;;;;;;;;;;4148862;28;20128;-41
2023/02/17 02:48:30;;;;;;;1.67;1.20;;;;;;;;;;4131953;28;20046;-42
2023/02/17 02:51:07;;;;;;;1.40;0.90;;;;;;;;;;4132123;28;20057;-41
2023/02/17 02:53:35;;;;;;;1.35;0.93;;;;;;;;;;4147395;28;20107;-42
2023/02/17 02:55:48;;;;;;;1.40;1.10;;;;;;;;;;4147855;28;20149;-41
2023/02/17 02:57:58;;;;;;;1.33;1.20;;;;;;;;;;4148489;28;20061;-41
2023/02/17 03:00:06;;;;;;;1.73;1.23;;;;;;;;;;4131576;28;20157;-41
2023/02/17 03:02:20;;;;;;;1.75;1.20;;;;;;;;;;4131413;28;20105;-42
2023/02/17 03:04:36;;;;;;;1.90;1.27;;;;;;;;;;4147967;28;20062;-41
2023/02/17 03:06:52;;;;;;;0.82;0.80;;;;;;;;;;4114740;28;20526;-41
2023/02/17 03:09:09;;;;;;;2.15;1.00;;;;;;;;;;4125401;28;20085;-41
2023/02/17 03:11:11;;;;;;;1.40;1.05;;;;;;;;;;4148367;28;20493;-44
2023/02/17 03:13:13;;;;;;;0.95;0.73;;;;;;;;;;4148432;28;20502;-40
2023/02/17 03:15:32;;;;;;;1.90;1.25;;;;;;;;;;4131752;28;20059;-42
2023/02/17 03:17:34;;;;;;;1.50;0.98;;;;;;;;;;4129159;28;20058;-41
2023/02/17 03:19:36;;;;;;;1.02;0.90;;;;;;;;;;4131122;28;20446;-42
2023/02/17 03:21:41;;;;;;;1.27;1.10;;;;;;;;;;4114853;28;20097;-41
2023/02/17 03:23:42;;;;;;;1.70;1.30;;;;;;;;;;4131523;28;20058;-41
2023/02/17 03:25:44;;;;;;;1.58;1.17;;;;;;;;;;4131053;28;20058;-41
2023/02/17 03:27:45;;;;;;;1.38;1.15;;;;;;;;;;4148367;28;20054;-41
2023/02/17 03:29:48;;;;;;;1.08;0.98;;;;;;;;;;4131059;28;20089;-41
2023/02/17 03:31:51;;;;;;;1.00;0.90;;;;;;;;;;4130958;28;20054;-41
2023/02/17 03:33:52;;;;;;;1.20;0.95;;;;;;;;;;4148724;28;20093;-42
2023/02/17 03:35:53;;;;;;;1.02;0.88;;;;;;;;;;4148370;28;20456;-40
2023/02/17 03:37:55;;;;;;;1.10;0.85;;;;;;;;;;4148100;28;20104;-41
2023/02/17 03:39:56;;;;;;;1.10;0.90;;;;;;;;;;4148130;28;20073;-41
2023/02/17 03:41:57;;;;;;;1.50;1.02;;;;;;;;;;4148460;28;20050;-41
2023/02/17 03:43:58;;;;;;;1.00;0.80;;;;;;;;;;4147909;28;20104;-41
2023/02/17 03:46:00;;;;;;;1.30;1.08;;;;;;;;;;4148258;28;20054;-41
2023/02/17 03:48:01;;;;;;;1.40;0.95;;;;;;;;;;4148164;28;20057;-41
2023/02/17 03:50:03;;;;;;;1.10;1.00;;;;;;;;;;4130860;28;20062;-41
2023/02/17 03:52:05;;;;;;;1.38;1.02;;;;;;;;;;4147346;28;20485;-41
2023/02/17 03:54:06;;;;;;;1.60;1.20;;;;;;;;;;4147761;28;20405;-41
2023/02/17 03:56:08;;;;;;;1.25;0.90;;;;;;;;;;4148120;28;20157;-41
2023/02/17 03:58:09;;;;;;;1.50;1.00;;;;;;;;;;4147854;28;20060;-41
2023/02/17 04:00:11;;;;;;;2.17;1.20;;;;;;;;;;4147939;28;20057;-40
2023/02/17 04:02:15;;;;;;;1.25;1.00;;;;;;;;;;4148047;28;20054;-41
2023/02/17 04:04:16;;;;;;;2.00;1.25;;;;;;;;;;4147909;28;20107;-40
2023/02/17 04:06:17;;;;;;;1.27;1.08;;;;;;;;;;4147338;28;20145;-41
2023/02/17 04:08:19;;;;;;;1.50;0.98;;;;;;;;;;4147882;28;20050;-41
2023/02/17 04:10:21;;;;;;;1.20;1.00;;;;;;;;;;4147533;28;20579;-41
2023/02/17 04:12:22;;;;;;;1.27;0.90;;;;;;;;;;4147268;28;20054;-40
2023/02/17 04:14:23;;;;;;;1.42;0.88;;;;;;;;;;4147656;28;20061;-40
2023/02/17 04:16:24;;;;;;;2.15;0.80;;;;;;;;;;4147761;28;20109;-41
2023/02/17 04:18:27;;;;;;;1.30;1.10;;;;;;;;;;4130174;28;20054;-40
2023/02/17 04:20:28;;;;;;;1.52;1.00;;;;;;;;;;4136487;28;20049;-40
2023/02/17 04:22:29;;;;;;;1.15;1.00;;;;;;;;;;4147144;28;20436;-43
2023/02/17 04:24:30;;;;;;;1.38;0.82;;;;;;;;;;4147819;28;20050;-40
2023/02/17 04:26:31;;;;;;;0.95;0.77;;;;;;;;;;4147134;28;20068;-40
2023/02/17 04:28:34;;;;;;;1.00;0.80;;;;;;;;;;4147765;28;20054;-40
2023/02/17 04:30:35;;;;;;;1.35;0.95;;;;;;;;;;4147764;28;20054;-40
2023/02/17 04:32:36;;;;;;;1.88;1.25;;;;;;;;;;4147428;28;20564;-39
2023/02/17 04:34:38;;;;;;;1.13;0.98;;;;;;;;;;4147576;28;20054;-42
2023/02/17 04:36:39;;;;;;;1.17;1.08;;;;;;;;;;4133906;28;20457;-40
2023/02/17 04:38:41;;;;;;;1.67;1.10;;;;;;;;;;4147394;28;20177;-40
2023/02/17 04:40:42;;;;;;;1.08;0.80;;;;;;;;;;4147450;28;20065;-40
2023/02/17 04:42:43;;;;;;;1.27;1.08;;;;;;;;;;4147395;28;20057;-41
2023/02/17 04:44:45;;;;;;;1.48;0.95;;;;;;;;;;4147051;28;20054;-40
2023/02/17 04:46:46;;;;;;;1.27;0.93;;;;;;;;;;4147201;28;20054;-41
2023/02/17 04:48:49;;;;;;;1.30;1.10;;;;;;;;;;4130347;28;20046;-40
2023/02/17 04:50:51;;;;;;;1.55;1.20;;;;;;;;;;4147491;28;20073;-40
2023/02/17 04:52:52;;;;;;;1.25;1.02;;;;;;;;;;4146814;28;20057;-40
2023/02/17 04:54:53;;;;;;;1.27;0.90;;;;;;;;;;4146729;28;20161;-40
2023/02/17 04:56:55;;;;;;;1.50;1.20;;;;;;;;;;4147148;28;20417;-39
2023/02/17 04:58:56;;;;;;;1.60;0.90;;;;;;;;;;4147416;28;20046;-40
2023/02/17 05:00:59;;;;;;;1.48;1.20;;;;;;;;;;4129598;28;20062;-41
2023/02/17 05:03:01;;;;;;;1.67;1.05;;;;;;;;;;4129665;28;20438;-40
2023/02/17 05:05:02;;;;;;;1.30;1.08;;;;;;;;;;4147239;28;20058;-40
2023/02/17 05:07:03;;;;;;;1.45;1.20;;;;;;;;;;4146881;28;20104;-41
2023/02/17 05:09:05;;;;;;;1.23;0.93;;;;;;;;;;4147171;28;20057;-40
2023/02/17 05:11:06;;;;;;;1.45;1.05;;;;;;;;;;4146772;28;20053;-41
2023/02/17 05:13:07;;;;;;;1.90;1.30;;;;;;;;;;4146802;28;20568;-41
2023/02/17 05:15:10;;;;;;;1.52;1.00;;;;;;;;;;4146943;28;20108;-41
2023/02/17 05:17:11;;;;;;;0.82;0.82;;;;;;;;;;4146469;28;20112;-41
2023/02/17 05:19:12;;;;;;;1.00;0.93;;;;;;;;;;4146663;28;20054;-41
2023/02/17 05:21:14;;;;;;;1.27;0.90;;;;;;;;;;4146564;28;20054;-41
2023/02/17 05:23:15;;;;;;;1.27;0.90;;;;;;;;;;4146970;28;20394;-41
2023/02/17 05:25:17;;;;;;;1.80;1.15;;;;;;;;;;4146641;28;20147;-41
2023/02/17 05:27:19;;;;;;;1.70;1.27;;;;;;;;;;4146237;28;20053;-40
2023/02/17 05:29:20;;;;;;;1.80;1.25;;;;;;;;;;4129785;28;20105;-41
2023/02/17 05:31:21;;;;;;;0.98;0.88;;;;;;;;;;4146713;28;20131;-40
2023/02/17 05:33:23;;;;;;;1.23;1.13;;;;;;;;;;4146871;28;20540;-41
2023/02/17 05:35:24;;;;;;;1.40;1.00;;;;;;;;;;4129530;28;20057;-41
2023/02/17 05:37:26;;;;;;;1.05;0.90;;;;;;;;;;4133241;28;20060;-41
2023/02/17 05:39:27;;;;;;;1.17;0.77;;;;;;;;;;4147007;28;20046;-41
2023/02/17 05:41:28;;;;;;;1.20;1.08;;;;;;;;;;4146545;28;20054;-41
2023/02/17 05:43:29;;;;;;;1.00;0.90;;;;;;;;;;4147075;28;20104;-41
2023/02/17 05:45:31;;;;;;;1.70;1.10;;;;;;;;;;4146468;28;20497;-41
2023/02/17 05:47:34;;;;;;;1.65;1.02;;;;;;;;;;4146561;28;20132;-41
2023/02/17 05:49:36;;;;;;;1.38;1.08;;;;;;;;;;4129211;28;20051;-41
2023/02/17 05:51:37;;;;;;;2.17;1.48;;;;;;;;;;4128796;28;20054;-42
2023/02/17 05:53:39;;;;;;;1.80;1.30;;;;;;;;;;4112531;28;20581;-42
2023/02/17 05:55:40;;;;;;;2.83;1.30;;;;;;;;;;4146741;28;20049;-41
2023/02/17 05:57:41;;;;;;;2.92;1.30;;;;;;;;;;4146647;28;20524;-41
2023/02/17 05:59:43;;;;;;;4.07;1.42;;;;;;;;;;4146348;28;20050;-42
2023/02/17 06:01:44;;;;;;;1.55;1.33;;;;;;;;;;4131003;28;20105;-41
2023/02/17 06:03:46;;;;;;;2.35;1.20;;;;;;;;;;4144688;28;20302;-40
2023/02/17 06:05:47;;;;;;;6.13;1.45;;;;;;;;;;4144627;28;20054;-40
2023/02/17 06:07:49;;;;;;;4.60;1.35;;;;;;;;;;4144258;28;20058;-42
2023/02/17 06:09:50;;;;;;;5.85;1.70;;;;;;;;;;4144471;28;20444;-41
2023/02/17 06:11:52;;;;;;;4.80;1.35;;;;;;;;;;4143873;28;20069;-41
2023/02/17 06:13:53;;;;;;;2.97;1.63;;;;;;;;;;4144032;28;20111;-41
2023/02/17 06:15:54;;;;;;;3.85;1.40;;;;;;;;;;4126931;28;20418;-41
2023/02/17 06:17:55;;;;;;;3.65;1.40;;;;;;;;;;4132955;28;20065;-42
2023/02/17 06:19:56;;;;;;;3.85;1.65;;;;;;;;;;4143176;28;20072;-41
2023/02/17 06:21:57;;;;;;;2.22;1.35;;;;;;;;;;4126588;28;20093;-41
2023/02/17 06:23:59;;;;;;;3.90;1.50;;;;;;;;;;4144408;28;20104;-41
2023/02/17 06:26:00;;;;;;;1.98;1.25;;;;;;;;;;4144096;28;20124;-41
2023/02/17 06:28:02;;;;;;;4.43;1.60;;;;;;;;;;4128495;28;20153;-41
2023/02/17 06:30:04;;;;;;;4.18;1.15;;;;;;;;;;4147518;28;20061;-41
2023/02/17 06:32:06;;;;;;;5.20;1.50;;;;;;;;;;4129936;28;20054;-41
2023/02/17 06:34:07;;;;;;;2.13;1.27;;;;;;;;;;4147395;28;20057;-41
2023/02/17 06:36:09;;;;;;;3.67;1.67;;;;;;;;;;4146622;28;20115;-41
2023/02/17 06:38:10;;;;;;;5.07;1.38;;;;;;;;;;4134063;28;20467;-41
2023/02/17 06:40:12;;;;;;;2.95;1.40;;;;;;;;;;4147159;28;20112;-40
2023/02/17 06:42:13;;;;;;;4.75;1.27;;;;;;;;;;4147404;28;20057;-41
2023/02/17 06:44:15;;;;;;;3.58;1.42;;;;;;;;;;4147380;28;20383;-41
2023/02/17 06:46:16;;;;;;;2.03;1.17;;;;;;;;;;4146489;28;20116;-41
2023/02/17 06:48:18;;;;;;;3.60;1.50;;;;;;;;;;4146793;28;20058;-41
2023/02/17 06:50:20;;;;;;;5.20;1.98;;;;;;;;;;4147384;28;20104;-41
2023/02/17 06:52:22;;;;;;;2.35;1.08;;;;;;;;;;4146269;28;20069;-41
2023/02/17 06:54:23;;;;;;;3.92;1.58;;;;;;;;;;4156975;28;20061;-41
2023/02/17 06:56:24;;;;;;;4.00;1.92;;;;;;;;;;4146965;28;20054;-41
2023/02/17 06:58:26;;;;;;;4.43;1.10;;;;;;;;;;4146768;28;20100;-40
2023/02/17 07:00:27;;;;;;;2.35;1.50;;;;;;;;;;4146710;28;20501;-41
2023/02/17 07:02:28;;;;;;;1.42;1.20;;;;;;;;;;4129064;28;20149;-40
2023/02/17 07:04:29;;;;;;;3.15;1.50;;;;;;;;;;4146748;28;20116;-40
2023/02/17 07:06:31;;;;;;;3.92;1.48;;;;;;;;;;4146430;28;20104;-41
2023/02/17 07:08:32;;;;;;;2.97;1.15;;;;;;;;;;4146732;28;20065;-41
2023/02/17 07:10:36;;;;;;;3.40;1.10;;;;;;;;;;4146686;28;20485;-41
2023/02/17 07:12:37;;;;;;;3.15;1.20;;;;;;;;;;4146298;28;20053;-41
2023/02/17 07:14:38;;;;;;;3.08;1.35;;;;;;;;;;4144852;28;20058;-41
2023/02/17 07:16:40;;;;;;;3.50;1.73;;;;;;;;;;4145392;28;20092;-41
2023/02/17 07:18:41;;;;;;;1.73;1.30;;;;;;;;;;4142824;28;20057;-41
2023/02/17 07:20:43;;;;;;;5.50;1.27;;;;;;;;;;4144295;28;20054;-42
2023/02/17 07:22:44;;;;;;;1.70;1.25;;;;;;;;;;4145388;28;20112;-41
2023/02/17 07:24:45;;;;;;;2.78;1.35;;;;;;;;;;4125060;28;20089;-41
2023/02/17 07:26:47;;;;;;;3.47;1.30;;;;;;;;;;4142138;28;20133;-41
2023/02/17 07:28:48;;;;;;;1.95;1.15;;;;;;;;;;4143324;28;20548;-41
2023/02/17 07:30:50;;;;;;;3.20;1.50;;;;;;;;;;4143386;28;20054;-41
2023/02/17 07:32:51;;;;;;;1.20;1.10;;;;;;;;;;4144594;28;20050;-41
2023/02/17 07:34:52;;;;;;;1.63;0.93;;;;;;;;;;4143852;28;20502;-41
2023/02/17 07:36:54;;;;;;;1.27;1.17;;;;;;;;;;4141307;28;20394;-40
2023/02/17 07:38:55;;;;;;;2.58;1.33;;;;;;;;;;4139156;28;20054;-39
2023/02/17 07:40:56;;;;;;;2.10;1.00;;;;;;;;;;4135324;28;20061;-41
2023/02/17 07:42:57;;;;;;;3.20;1.13;;;;;;;;;;4120572;28;20081;-41
2023/02/17 07:44:59;;;;;;;1.75;0.90;;;;;;;;;;4141350;28;20474;-41
2023/02/17 07:47:00;;;;;;;2.38;1.08;;;;;;;;;;4139426;28;20405;-40
2023/02/17 07:49:01;;;;;;;1.23;0.98;;;;;;;;;;4141849;28;20064;-41
2023/02/17 07:51:08;;;;;;;2.67;1.30;;;;;;;;;;4136006;28;20111;-40
2023/02/17 07:53:09;;;;;;;2.38;1.05;;;;;;;;;;4137948;28;20112;-41
2023/02/17 07:55:10;;;;;;;2.13;0.90;;;;;;;;;;4138901;28;20456;-41
2023/02/17 07:57:12;;;;;;;1.35;0.73;;;;;;;;;;4123998;28;20066;-41
2023/02/17 07:59:13;;;;;;;1.73;1.00;;;;;;;;;;4138881;28;20132;-41
2023/02/17 08:01:17;;;;;;;3.78;1.13;;;;;;;;;;4125386;28;20100;-40
2023/02/17 08:03:18;;;;;;;2.40;1.02;;;;;;;;;;4123792;28;20403;-41
2023/02/17 08:05:20;;;;;;;1.80;1.00;;;;;;;;;;4140900;28;20049;-41
2023/02/17 08:07:21;;;;;;;2.80;1.20;;;;;;;;;;4138862;28;20060;-41
2023/02/17 08:14:02;;;;;;;;;;;;;;;;;;4136358;28;20418;-40
2023/02/17 08:16:03;;;;;;;1.27;0.95;;;;;;;;;;4137921;28;19977;-40
2023/02/17 08:18:05;;;;;;;1.58;0.90;;;;;;;;;;4139966;28;20058;-41
2023/02/17 08:20:07;;;;;;;2.47;0.90;;;;;;;;;;4124082;28;20096;-41
2023/02/17 08:22:09;;;;;;;1.40;1.10;;;;;;;;;;4135770;28;20110;-42
2023/02/17 08:24:11;;;;;;;3.00;0.90;;;;;;;;;;4138342;28;20058;-42
2023/02/17 08:26:13;;;;;;;2.70;0.80;;;;;;;;;;4134934;28;20081;-41
2023/02/17 08:28:16;;;;;;;2.25;0.70;;;;;;;;;;4134080;28;20057;-41
2023/02/17 08:30:17;;;;;;;0.80;0.60;;;;;;;;;;4138170;28;20390;-40
2023/02/17 08:32:19;;;;;;;1.67;1.08;;;;;;;;;;4135897;28;20084;-41
2023/02/17 08:34:20;;;;;;;1.25;0.85;;;;;;;;;;4137492;28;20489;-42
2023/02/17 08:36:23;;;;;;;1.20;0.90;;;;;;;;;;4137448;28;20455;-42
2023/02/17 08:38:25;;;;;;;1.52;1.00;;;;;;;;;;4117979;28;20117;-42
2023/02/17 08:40:27;;;;;;;1.23;0.70;;;;;;;;;;4137053;28;20166;-41
2023/02/17 08:42:31;;;;;;;1.08;0.65;;;;;;;;;;4122385;28;20058;-43
2023/02/17 08:44:34;;;;;;;0.65;0.65;;;;;;;;;;4138194;28;20608;-41
2023/02/17 08:46:36;;;;;;;3.08;1.00;;;;;;;;;;4133458;28;20058;-40
2023/02/17 08:48:37;;;;;;;1.50;0.85;;;;;;;;;;4124071;28;20050;-41
2023/02/17 08:50:39;;;;;;;1.45;0.82;;;;;;;;;;4108218;28;20116;-39
2023/02/17 08:52:40;;;;;;;1.83;0.80;;;;;;;;;;4109001;28;20062;-41
2023/02/17 08:54:42;;;;;;;2.20;1.05;;;;;;;;;;4124607;28;20097;-39
2023/02/17 08:56:43;;;;;;;2.15;1.10;;;;;;;;;;4114486;28;20104;-40
2023/02/17 08:58:45;;;;;;;1.20;0.93;;;;;;;;;;4129188;28;20156;-38
2023/02/17 09:00:46;;;;;;;2.05;0.93;;;;;;;;;;4124076;28;22159;-40
2023/02/17 09:02:48;;;;;;;1.38;0.90;;;;;;;;;;4123343;28;20069;-40
2023/02/17 09:04:49;;;;;;;1.42;0.90;;;;;;;;;;4130807;28;20064;-39
2023/02/17 09:06:55;;;;;;;2.83;0.88;;;;;;;;;;4112770;28;20128;-40
2023/02/17 09:08:56;;;;;;;2.05;1.10;;;;;;;;;;4107600;28;20389;-40
2023/02/17 09:10:58;;;;;;;1.38;0.82;;;;;;;;;;4131412;28;20062;-40
2023/02/17 09:12:59;;;;;;;1.88;1.00;;;;;;;;;;4127447;28;20713;-40
2023/02/17 09:15:00;;;;;;;1.55;0.88;;;;;;;;;;4131611;28;20065;-38
2023/02/17 09:17:03;;;;;;;3.58;0.90;;;;;;;;;;4131924;28;20539;-40
2023/02/17 09:19:04;;;;;;;4.72;1.00;;;;;;;;;;4129702;28;20053;-40
2023/02/17 09:21:11;;;;;;;2.33;1.00;;;;;;;;;;4132441;28;20056;-40
2023/02/17 09:23:12;;;;;;;2.83;1.05;;;;;;;;;;4130107;28;20952;-40
2023/02/17 09:25:14;;;;;;;3.67;1.17;;;;;;;;;;4127978;28;21642;-38
2023/02/17 09:27:15;;;;;;;1.67;1.27;;;;;;;;;;4132393;28;20572;-38
2023/02/17 09:29:17;;;;;;;1.42;0.82;;;;;;;;;;4127314;28;20089;-41
2023/02/17 09:31:21;;;;;;;1.67;1.00;;;;;;;;;;4129392;28;20057;-40
2023/02/17 09:33:22;;;;;;;2.75;1.42;;;;;;;;;;4107146;28;20065;-40
2023/02/17 09:35:24;;;;;;;2.35;1.00;;;;;;;;;;4126059;28;20049;-39
2023/02/17 09:37:26;;;;;;;1.30;0.95;;;;;;;;;;4111415;28;20133;-42
2023/02/17 09:39:28;;;;;;;2.13;0.88;;;;;;;;;;4103971;28;20062;-41
2023/02/17 09:41:36;;;;;;;2.58;1.10;;;;;;;;;;4131493;28;20332;-42
2023/02/17 09:43:38;;;;;;;2.22;0.95;;;;;;;;;;4106853;28;20058;-39
2023/02/17 09:45:40;;;;;;;1.40;0.77;;;;;;;;;;4128014;28;20062;-39
2023/02/17 09:48:01;;;;;;;1.80;1.10;;;;;;;;;;4126251;28;20088;-40
2023/02/17 09:50:07;;;;;;;1.83;0.77;;;;;;;;;;4124739;28;20060;-40
2023/02/17 09:52:34;;;;;;;2.63;0.88;;;;;;;;;;4124981;28;20116;-40
2023/02/17 09:54:42;;;;;;;1.40;1.00;;;;;;;;;;4111016;28;20058;-40
2023/02/17 09:56:47;;;;;;;1.85;1.20;;;;;;;;;;4126610;28;20057;-40
2023/02/17 09:58:53;;;;;;;1.52;0.90;;;;;;;;;;4101867;28;20513;-40
2023/02/17 10:00:57;;;;;;;2.47;0.90;;;;;;;;;;4108297;28;20058;-39
2023/02/17 10:02:58;;;;;;;0.82;0.70;;;;;;;;;;4128828;28;20119;-40
2023/02/17 10:05:03;;;;;;;2.45;0.80;;;;;;;;;;4139070;28;20062;-40
2023/02/17 10:07:09;;;;;;;1.58;0.90;;;;;;;;;;4140147;28;20069;-40
2023/02/17 10:09:15;;;;;;;2.42;0.85;;;;;;;;;;4124006;28;20049;-40
2023/02/17 10:11:30;;;;;;;1.05;0.77;;;;;;;;;;4114470;28;20485;-41
2023/02/17 10:13:33;;;;;;;3.00;1.08;;;;;;;;;;4135118;28;20288;-40
2023/02/17 10:15:39;;;;;;;1.30;0.77;;;;;;;;;;4140846;28;20085;-39
2023/02/17 10:17:56;;;;;;;0.93;0.85;;;;;;;;;;4134354;28;20498;-38
2023/02/17 10:20:20;;;;;;;3.22;0.82;;;;;;;;;;4138686;28;20077;-40
2023/02/17 10:22:23;;;;;;;2.13;1.20;;;;;;;;;;4139424;28;20049;-40
2023/02/17 10:24:24;;;;;;;1.52;0.82;;;;;;;;;;4135411;28;20092;-39
2023/02/17 10:26:38;;;;;;;1.83;1.10;;;;;;;;;;4138824;28;20065;-40
2023/02/17 10:29:04;;;;;;;1.00;0.77;;;;;;;;;;4116042;28;20132;-39
2023/02/17 10:31:12;;;;;;;2.85;1.10;;;;;;;;;;4133882;28;20054;-39
2023/02/17 10:33:28;;;;;;;2.03;0.80;;;;;;;;;;4124899;28;20057;-39
2023/02/17 10:35:41;;;;;;;1.38;1.13;;;;;;;;;;4123805;28;20116;-39
2023/02/17 10:37:45;;;;;;;1.80;1.10;;;;;;;;;;4138419;28;20061;-38
2023/02/17 10:39:52;;;;;;;2.55;1.00;;;;;;;;;;4131169;28;20140;-40
2023/02/17 10:41:53;;;;;;;2.25;0.85;;;;;;;;;;4104056;28;20058;-40
2023/02/17 10:43:55;;;;;;;1.75;1.08;;;;;;;;;;4130854;28;20239;-40
2023/02/17 10:45:56;;;;;;;1.25;0.70;;;;;;;;;;4129813;28;20109;-39
2023/02/17 10:48:10;;;;;;;2.97;1.10;;;;;;;;;;4126885;28;22044;-39
2023/02/17 10:50:22;;;;;;;2.15;1.30;;;;;;;;;;4117969;28;20072;-39
2023/02/17 10:52:35;;;;;;;1.52;0.93;;;;;;;;;;4115230;28;20063;-39
2023/02/17 10:54:39;;;;;;;2.25;0.90;;;;;;;;;;4114574;28;20497;-40
2023/02/17 10:56:45;;;;;;;1.80;1.20;;;;;;;;;;4118316;28;20084;-40
2023/02/17 10:58:54;;;;;;;2.58;1.50;;;;;;;;;;4140251;28;20512;-41
2023/02/17 11:00:56;;;;;;;2.28;1.00;;;;;;;;;;4120835;28;20538;-40
2023/02/17 11:02:58;;;;;;;1.70;1.05;;;;;;;;;;4122609;28;20058;-40
2023/02/17 11:04:59;;;;;;;1.13;1.02;;;;;;;;;;4140026;28;20054;-40
2023/02/17 11:07:02;;;;;;;1.23;1.00;;;;;;;;;;4139893;28;20074;-39
2023/02/17 11:09:15;;;;;;;1.65;1.10;;;;;;;;;;4140277;28;20149;-40
2023/02/17 11:11:25;;;;;;;1.70;1.20;;;;;;;;;;4124388;28;20069;-40
2023/02/17 11:13:39;;;;;;;2.40;1.55;;;;;;;;;;4125521;28;20122;-40
2023/02/17 11:15:45;;;;;;;2.47;1.15;;;;;;;;;;4138016;28;20057;-39
2023/02/17 11:17:47;;;;;;;2.50;1.25;;;;;;;;;;4124687;28;20058;-40
2023/02/17 11:20:04;;;;;;;2.13;1.38;;;;;;;;;;4138431;28;20046;-40
2023/02/17 11:22:26;;;;;;;2.10;1.27;;;;;;;;;;4140881;28;20057;-41
2023/02/17 11:24:28;;;;;;;2.42;1.65;;;;;;;;;;4146499;28;20061;-41
2023/02/17 11:26:34;;;;;;;2.65;1.45;;;;;;;;;;4124357;28;20050;-40
2023/02/17 11:28:35;;;;;;;2.35;1.52;;;;;;;;;;4143574;28;20497;-40
2023/02/17 11:30:39;;;;;;;2.95;1.02;;;;;;;;;;4130096;28;20065;-39
2023/02/17 11:32:39;;;;;;;1.98;1.13;;;;;;;;;;4123300;28;20069;-40
2023/02/17 11:34:42;;;;;;;1.50;1.00;;;;;;;;;;4127993;28;20564;-40
2023/02/17 11:36:44;;;;;;;2.03;1.17;;;;;;;;;;4117044;28;20398;-40
2023/02/17 11:38:46;;;;;;;2.08;1.23;;;;;;;;;;4130466;28;20046;-39
2023/02/17 11:40:59;;;;;;;1.70;1.20;;;;;;;;;;4132985;28;20490;-39
2023/02/17 11:43:02;;;;;;;3.20;1.40;;;;;;;;;;4133415;28;20049;-41
2023/02/17 11:45:18;;;;;;;2.47;1.42;;;;;;;;;;4114837;28;20062;-40
2023/02/17 11:47:38;;;;;;;2.13;1.38;;;;;;;;;;4129498;28;20568;-40
2023/02/17 11:49:55;;;;;;;2.42;1.30;;;;;;;;;;4116300;28;20124;-39
2023/02/17 11:52:35;;;;;;;2.58;1.25;;;;;;;;;;4117591;28;20058;-40
2023/02/17 11:54:45;;;;;;;;;;;;;;;;;;4112036;28;20049;-39
2023/02/17 11:57:04;;;;;;;3.20;1.60;;;;;;;;;;4113659;28;20370;-39
2023/02/17 11:59:25;;;;;;;3.53;1.50;;;;;;;;;;4130725;28;20069;-39
2023/02/17 12:02:07;;;;;;;2.88;1.40;;;;;;;;;;4114597;28;20097;-39
2023/02/17 12:04:25;;;;;;;2.55;1.70;;;;;;;;;;4087177;28;20058;-38
2023/02/17 12:06:47;;;;;;;1.88;1.40;;;;;;;;;;4124167;28;20584;-39
2023/02/17 12:09:10;;;;;;;1.90;1.45;;;;;;;;;;4121960;28;20116;-39
2023/02/17 12:11:19;;;;;;;1.98;1.48;;;;;;;;;;4124256;28;20925;-38
2023/02/17 12:13:49;;;;;;;2.88;1.48;;;;;;;;;;4126871;28;20105;-39
2023/02/17 12:16:17;;;;;;;2.97;1.73;;;;;;;;;;4113659;28;20488;-40
2023/02/17 12:18:28;;;;;;;3.40;1.85;;;;;;;;;;4118176;28;20153;-40
2023/02/17 12:20:38;;;;;;;3.17;1.85;;;;;;;;;;4128541;28;20057;-40
2023/02/17 12:22:54;;;;;;;4.03;1.90;;;;;;;;;;4112277;28;20058;-39
2023/02/17 12:25:20;;;;;;;2.90;1.88;;;;;;;;;;4127926;28;20058;-39
2023/02/17 12:27:30;;;;;;;3.80;2.00;;;;;;;;;;4130598;28;20417;-39
2023/02/17 12:29:40;;;;;;;2.92;1.80;;;;;;;;;;4128802;28;20093;-40
2023/02/17 12:32:03;;;;;;;3.25;2.00;;;;;;;;;;4110789;28;20058;-40
2023/02/17 12:34:08;;;;;;;2.95;1.90;;;;;;;;;;4125843;28;20120;-40